Time;durP1;ratioP1;P1;durP2;ratioP2;P2;SDS_P1;SDS_P2;PMS_P1;PMS_P2;Temp;Humidity;BMP_temperature;BMP_pressure;BME280_temperature;BME280_humidity;BME280_pressure;Samples;Min_cycle;Max_cycle;Signal;HPM_P1;HPM_P2
2022/01/01 00:02:24;;;;;;;249.90;137.50;;;2.60;99.90;;;;;;5030098;28;20032;-73
2022/01/01 00:04:50;;;;;;;276.27;142.03;;;2.60;99.90;;;;;;5029884;28;20022;-73
2022/01/01 00:07:16;;;;;;;288.17;148.20;;;2.60;99.90;;;;;;5012400;28;20041;-72
2022/01/01 00:09:43;;;;;;;340.03;146.17;;;2.60;99.90;;;;;;5030031;28;20549;-73
2022/01/01 00:12:10;;;;;;;269.33;141.60;;;2.60;99.90;;;;;;5029709;28;20036;-73
2022/01/01 00:14:36;;;;;;;303.03;146.33;;;2.50;99.90;;;;;;5030437;28;20026;-73
2022/01/01 00:17:03;;;;;;;251.97;127.17;;;2.40;99.90;;;;;;5029723;28;20032;-73
2022/01/01 00:19:31;;;;;;;262.53;133.37;;;2.40;99.90;;;;;;5029314;28;20101;-73
2022/01/01 00:21:57;;;;;;;240.87;127.80;;;2.40;99.90;;;;;;5012448;28;20108;-73
2022/01/01 00:24:23;;;;;;;266.70;140.93;;;2.50;99.90;;;;;;5029480;28;20025;-73
2022/01/01 00:26:49;;;;;;;273.17;137.70;;;2.50;99.90;;;;;;5029654;28;20053;-73
2022/01/01 00:29:15;;;;;;;227.37;120.57;;;2.40;99.90;;;;;;5012237;28;20018;-72
2022/01/01 00:31:40;;;;;;;194.57;106.83;;;2.40;99.90;;;;;;5029174;28;20028;-73
2022/01/01 00:34:06;;;;;;;209.23;110.87;;;2.40;99.90;;;;;;5030121;28;20041;-73
2022/01/01 00:36:32;;;;;;;251.03;125.87;;;2.40;99.90;;;;;;5029540;28;20538;-73
2022/01/01 00:38:58;;;;;;;269.10;130.83;;;2.30;99.90;;;;;;5032936;28;20021;-73
2022/01/01 00:41:24;;;;;;;240.97;125.17;;;2.20;99.90;;;;;;5015263;28;20111;-82
2022/01/01 00:43:50;;;;;;;220.47;111.50;;;2.20;99.90;;;;;;5033138;28;20489;-82
2022/01/01 00:46:16;;;;;;;174.10;94.03;;;2.10;99.90;;;;;;5033037;28;20075;-82
2022/01/01 00:48:41;;;;;;;152.60;84.63;;;2.20;99.90;;;;;;5032985;28;20036;-82
2022/01/01 00:51:07;;;;;;;137.63;76.97;;;2.20;99.90;;;;;;5015185;28;20086;-81
2022/01/01 00:53:33;;;;;;;127.50;74.23;;;2.30;99.90;;;;;;5033109;28;20119;-73
2022/01/01 00:55:59;;;;;;;117.20;70.17;;;2.20;99.90;;;;;;5030448;28;20028;-73
2022/01/01 00:58:25;;;;;;;142.00;76.83;;;2.30;99.90;;;;;;5030710;28;20143;-73
2022/01/01 01:00:50;;;;;;;133.57;75.00;;;2.30;99.90;;;;;;5018742;28;20022;-73
2022/01/01 01:03:17;;;;;;;120.23;70.70;;;2.30;99.90;;;;;;5037123;28;20025;-73
2022/01/01 01:05:45;;;;;;;122.70;67.77;;;2.30;99.90;;;;;;5037631;28;20021;-73
2022/01/01 01:08:13;;;;;;;125.50;69.57;;;2.30;99.90;;;;;;5037556;28;20025;-73
2022/01/01 01:10:40;;;;;;;128.40;70.27;;;2.30;99.90;;;;;;5020629;28;20025;-73
2022/01/01 01:13:07;;;;;;;112.93;66.57;;;2.30;99.90;;;;;;5038951;28;20502;-72
2022/01/01 01:15:34;;;;;;;117.37;67.00;;;2.30;99.90;;;;;;5039136;28;20045;-73
2022/01/01 01:18:03;;;;;;;110.13;65.37;;;2.20;99.90;;;;;;5038912;28;20022;-73
2022/01/01 01:20:29;;;;;;;111.50;66.47;;;2.30;99.90;;;;;;5039035;28;20035;-73
2022/01/01 01:22:55;;;;;;;119.47;70.30;;;2.20;99.90;;;;;;5038949;28;20028;-73
2022/01/01 01:25:22;;;;;;;127.60;70.13;;;2.20;99.90;;;;;;5039016;28;20060;-73
2022/01/01 01:27:51;;;;;;;127.80;72.20;;;2.20;99.90;;;;;;5038632;28;20049;-73
2022/01/01 01:30:19;;;;;;;123.00;70.07;;;2.20;99.90;;;;;;5038859;28;20032;-73
2022/01/01 01:32:48;;;;;;;115.63;68.53;;;2.20;99.90;;;;;;5038687;28;20021;-73
2022/01/01 01:35:14;;;;;;;118.53;68.83;;;2.30;99.90;;;;;;5020972;28;20055;-72
2022/01/01 01:37:41;;;;;;;126.67;72.57;;;2.30;99.90;;;;;;5020810;28;20021;-73
2022/01/01 01:40:08;;;;;;;149.67;79.17;;;2.20;99.90;;;;;;5020970;28;20018;-73
2022/01/01 01:42:35;;;;;;;161.13;82.13;;;2.20;99.90;;;;;;5038499;28;20101;-73
2022/01/01 01:45:03;;;;;;;152.00;81.23;;;2.10;99.90;;;;;;5020915;28;20033;-73
2022/01/01 01:47:31;;;;;;;140.27;77.10;;;2.20;99.90;;;;;;5020896;28;20036;-73
2022/01/01 01:50:03;;;;;;;139.43;76.57;;;2.20;99.90;;;;;;5020587;28;20028;-73
2022/01/01 01:52:33;;;;;;;;;;;2.10;99.90;;;;;;5039252;28;20032;-73
2022/01/01 01:55:08;;;;;;;154.10;77.63;;;2.10;99.90;;;;;;5038623;28;19913;-73
2022/01/01 01:57:41;;;;;;;138.10;75.33;;;2.00;99.90;;;;;;5020583;28;20079;-73
2022/01/01 02:02:49;;;;;;;138.25;74.65;;;2.00;99.90;;;;;;5038942;28;20083;-73
2022/01/01 02:05:15;;;;;;;145.07;78.00;;;2.00;99.90;;;;;;5038404;28;20021;-73
2022/01/01 02:07:42;;;;;;;136.10;74.47;;;1.90;99.90;;;;;;5037589;28;20025;-73
2022/01/01 02:10:08;;;;;;;133.80;70.77;;;1.90;99.90;;;;;;5018635;28;20489;-73
2022/01/01 02:12:34;;;;;;;142.27;73.13;;;1.90;99.90;;;;;;5034893;28;20024;-72
2022/01/01 02:17:29;;;;;;;129.93;68.47;;;1.90;99.90;;;;;;5035175;28;20102;-73
2022/01/01 02:20:01;;;;;;;126.73;69.10;;;1.90;99.90;;;;;;5035366;28;20099;-73
2022/01/01 02:22:45;;;;;;;119.25;66.53;;;1.90;99.90;;;;;;5035253;28;20014;-73
2022/01/01 02:25:11;;;;;;;113.90;65.07;;;1.90;99.90;;;;;;5017432;28;20479;-73
2022/01/01 02:27:36;;;;;;;106.47;61.53;;;1.90;99.90;;;;;;5034877;28;20057;-73
2022/01/01 02:30:05;;;;;;;123.33;67.40;;;1.90;99.90;;;;;;5035048;28;20029;-73
2022/01/01 02:32:31;;;;;;;107.50;63.90;;;1.80;99.90;;;;;;5017079;28;20021;-73
2022/01/01 02:34:57;;;;;;;111.93;65.37;;;1.80;99.90;;;;;;5016890;28;20033;-73
2022/01/01 02:37:22;;;;;;;107.67;60.37;;;1.90;99.90;;;;;;5016960;28;20026;-73
2022/01/01 02:39:50;;;;;;;107.03;60.40;;;1.90;99.90;;;;;;5034698;28;20029;-73
2022/01/01 02:42:20;;;;;;;112.47;63.63;;;1.90;99.90;;;;;;5034917;28;20024;-73
2022/01/01 02:44:46;;;;;;;111.20;63.07;;;1.70;99.90;;;;;;5034854;28;20028;-73
2022/01/01 02:47:12;;;;;;;103.43;60.20;;;1.80;99.90;;;;;;5016993;28;20533;-73
2022/01/01 02:49:38;;;;;;;116.83;65.53;;;1.80;99.90;;;;;;5016875;28;20113;-73
2022/01/01 02:52:04;;;;;;;103.70;63.33;;;1.80;99.90;;;;;;5034804;28;20029;-72
2022/01/01 02:54:29;;;;;;;102.73;60.73;;;1.80;99.90;;;;;;5034703;28;20025;-73
2022/01/01 02:56:55;;;;;;;101.10;60.63;;;1.80;99.90;;;;;;5034386;28;20037;-73
2022/01/01 02:59:21;;;;;;;103.67;62.33;;;1.80;99.90;;;;;;5034799;28;20028;-72
2022/01/01 03:01:47;;;;;;;106.23;62.43;;;1.80;99.90;;;;;;5034557;28;20383;-73
2022/01/01 03:04:13;;;;;;;109.63;62.97;;;1.80;99.90;;;;;;5016716;28;20167;-73
2022/01/01 03:06:38;;;;;;;104.63;61.30;;;1.80;99.90;;;;;;5034152;28;20471;-73
2022/01/01 03:09:05;;;;;;;102.13;59.73;;;1.80;99.90;;;;;;5034483;28;20033;-73
2022/01/01 03:11:30;;;;;;;103.60;61.83;;;1.80;99.90;;;;;;5034236;28;20033;-73
2022/01/01 03:13:56;;;;;;;103.20;60.03;;;1.80;99.90;;;;;;5034352;28;20037;-73
2022/01/01 03:16:22;;;;;;;99.83;60.00;;;1.80;99.90;;;;;;5016444;28;20460;-73
2022/01/01 03:18:48;;;;;;;99.57;58.33;;;1.80;99.90;;;;;;5034259;28;20029;-73
2022/01/01 03:21:13;;;;;;;96.50;56.80;;;1.70;99.90;;;;;;5016432;28;20372;-72
2022/01/01 03:23:39;;;;;;;94.40;57.37;;;1.80;99.90;;;;;;5034073;28;20476;-73
2022/01/01 03:26:05;;;;;;;95.80;57.27;;;1.70;99.90;;;;;;5013125;28;20376;-73
2022/01/01 03:28:31;;;;;;;98.27;55.93;;;1.70;99.90;;;;;;5014589;28;20108;-73
2022/01/01 03:30:58;;;;;;;93.63;57.43;;;1.70;99.90;;;;;;5014364;28;20058;-73
2022/01/01 03:33:24;;;;;;;101.27;57.97;;;1.70;99.90;;;;;;5013032;28;20030;-72
2022/01/01 03:35:50;;;;;;;97.73;57.77;;;1.60;99.90;;;;;;5013971;28;20036;-73
2022/01/01 03:38:17;;;;;;;92.07;54.90;;;1.60;99.90;;;;;;5014393;28;20026;-73
2022/01/01 03:40:43;;;;;;;91.43;54.70;;;1.60;99.90;;;;;;5012382;28;20053;-73
2022/01/01 03:43:09;;;;;;;83.40;51.50;;;1.60;99.90;;;;;;5014273;28;20112;-73
2022/01/01 03:45:36;;;;;;;79.77;50.33;;;1.60;99.90;;;;;;5013336;28;20118;-73
2022/01/01 03:48:06;;;;;;;87.83;54.23;;;1.60;99.90;;;;;;5013567;28;20030;-74
2022/01/01 03:50:33;;;;;;;77.57;47.13;;;1.60;99.90;;;;;;5013534;28;20105;-73
2022/01/01 03:52:58;;;;;;;68.77;45.13;;;1.60;99.90;;;;;;5013486;28;20029;-73
2022/01/01 03:55:24;;;;;;;67.87;44.60;;;1.60;99.90;;;;;;5011920;28;20510;-73
2022/01/01 03:57:50;;;;;;;71.13;44.53;;;1.60;99.90;;;;;;5013085;28;20105;-73
2022/01/01 04:00:16;;;;;;;65.53;42.17;;;1.60;99.90;;;;;;5012069;28;20053;-73
2022/01/01 04:02:42;;;;;;;61.27;41.70;;;1.60;99.90;;;;;;5012500;28;20537;-73
2022/01/01 04:05:08;;;;;;;64.23;42.27;;;1.60;99.90;;;;;;5013704;28;20026;-73
2022/01/01 04:07:34;;;;;;;64.43;42.47;;;1.60;99.90;;;;;;5013353;28;20026;-72
2022/01/01 04:10:00;;;;;;;64.20;41.53;;;1.60;99.90;;;;;;5013586;28;20025;-73
2022/01/01 04:12:26;;;;;;;59.60;39.57;;;1.60;99.90;;;;;;5011968;28;20029;-73
2022/01/01 04:14:53;;;;;;;62.80;41.37;;;1.50;99.90;;;;;;5013363;28;20471;-73
2022/01/01 04:17:19;;;;;;;67.10;41.43;;;1.50;99.90;;;;;;5013128;28;20229;-74
2022/01/01 04:19:45;;;;;;;63.27;40.37;;;1.50;99.90;;;;;;5011942;28;20041;-73
2022/01/01 04:22:13;;;;;;;59.00;40.50;;;1.50;99.90;;;;;;5013300;28;21403;-73
2022/01/01 04:27:25;;;;;;;69.97;44.53;;;1.50;99.90;;;;;;5027235;28;20049;-73
2022/01/01 04:29:51;;;;;;;83.30;49.37;;;1.40;99.90;;;;;;5032857;28;20029;-73
2022/01/01 04:32:18;;;;;;;84.70;47.70;;;1.40;99.90;;;;;;5032844;28;20013;-73
2022/01/01 04:34:44;;;;;;;76.37;43.07;;;1.50;99.90;;;;;;5032231;28;20025;-73
2022/01/01 04:37:12;;;;;;;72.33;39.67;;;1.60;99.90;;;;;;5014766;28;20417;-74
2022/01/01 04:39:39;;;;;;;67.37;39.37;;;1.80;99.90;;;;;;5015141;28;20482;-73
2022/01/01 04:42:06;;;;;;;52.47;31.07;;;1.80;99.90;;;;;;5032695;28;20532;-73
2022/01/01 04:44:31;;;;;;;47.20;26.83;;;2.00;99.90;;;;;;5032787;28;20030;-73
2022/01/01 04:46:57;;;;;;;57.03;33.27;;;2.10;99.90;;;;;;5032653;28;20031;-73
2022/01/01 04:49:23;;;;;;;66.47;38.33;;;2.10;99.90;;;;;;5032802;28;20156;-73
2022/01/01 04:51:51;;;;;;;70.13;40.50;;;2.10;99.90;;;;;;5032770;28;20025;-73
2022/01/01 04:54:17;;;;;;;69.37;37.97;;;2.00;99.90;;;;;;5014898;28;20026;-73
2022/01/01 04:56:45;;;;;;;50.87;28.93;;;1.90;99.90;;;;;;5032275;28;20100;-73
2022/01/01 04:59:12;;;;;;;46.57;25.23;;;1.90;99.90;;;;;;5014935;28;20048;-73
2022/01/01 05:01:39;;;;;;;40.23;23.57;;;1.90;99.90;;;;;;5032487;28;20022;-73
2022/01/01 05:04:05;;;;;;;38.87;21.47;;;2.00;99.90;;;;;;5032621;28;20027;-73
2022/01/01 05:06:31;;;;;;;35.93;20.97;;;1.90;99.90;;;;;;5032455;28;20025;-73
2022/01/01 05:08:57;;;;;;;31.17;17.40;;;1.90;99.90;;;;;;5014728;28;20411;-73
2022/01/01 05:11:23;;;;;;;45.53;27.03;;;2.10;99.90;;;;;;5032516;28;20533;-73
2022/01/01 05:13:48;;;;;;;53.43;32.93;;;2.10;99.90;;;;;;5032525;28;20080;-73
2022/01/01 05:16:17;;;;;;;57.87;35.00;;;2.10;99.90;;;;;;5014666;28;20064;-73
2022/01/01 05:18:43;;;;;;;56.77;35.23;;;2.10;99.90;;;;;;5032536;28;20018;-72
2022/01/01 05:21:09;;;;;;;53.10;34.90;;;2.00;99.90;;;;;;5032363;28;20071;-73
2022/01/01 05:23:35;;;;;;;55.90;34.13;;;2.00;99.90;;;;;;5032465;28;20630;-73
2022/01/01 05:26:01;;;;;;;50.80;31.53;;;2.00;99.90;;;;;;5014246;28;20116;-73
2022/01/01 05:28:27;;;;;;;40.33;24.07;;;1.90;99.90;;;;;;5032269;28;20603;-73
2022/01/01 05:30:52;;;;;;;23.00;14.23;;;1.90;99.90;;;;;;5032463;28;20087;-73
2022/01/01 05:33:18;;;;;;;20.07;13.53;;;2.00;99.90;;;;;;5032203;28;20025;-73
2022/01/01 05:35:44;;;;;;;22.37;12.80;;;2.10;99.90;;;;;;5032067;28;20108;-73
2022/01/01 05:38:10;;;;;;;16.97;10.53;;;2.20;99.90;;;;;;5032360;28;20110;-73
2022/01/01 05:40:35;;;;;;;14.80;10.20;;;2.30;99.90;;;;;;5031531;28;20029;-73
2022/01/01 05:43:01;;;;;;;12.63;7.80;;;2.30;99.90;;;;;;5032068;28;20528;-73
2022/01/01 05:45:27;;;;;;;25.43;15.73;;;2.50;99.90;;;;;;5014330;28;20074;-74
2022/01/01 05:47:52;;;;;;;37.73;22.70;;;2.50;99.90;;;;;;5035935;28;20052;-72
2022/01/01 05:50:20;;;;;;;41.67;26.30;;;2.40;99.90;;;;;;5018405;28;20026;-73
2022/01/01 05:52:46;;;;;;;55.63;34.60;;;2.40;99.90;;;;;;5024038;28;20108;-73
2022/01/01 05:55:15;;;;;;;58.00;36.33;;;2.20;99.90;;;;;;5027036;28;20021;-73
2022/01/01 05:57:41;;;;;;;62.20;37.97;;;2.10;99.90;;;;;;5055504;28;20382;-73
2022/01/01 06:00:07;;;;;;;56.67;36.97;;;2.00;99.90;;;;;;5054896;28;20026;-73
2022/01/01 06:02:40;;;;;;;57.23;38.07;;;1.90;99.90;;;;;;5055097;28;20017;-73
2022/01/01 06:05:06;;;;;;;57.83;36.13;;;1.90;99.90;;;;;;5054328;28;20032;-73
2022/01/01 06:07:32;;;;;;;50.13;33.67;;;1.90;99.90;;;;;;5036819;28;20025;-73
2022/01/01 06:09:57;;;;;;;54.17;35.13;;;1.80;99.90;;;;;;5035605;28;20092;-73
2022/01/01 06:12:23;;;;;;;51.70;34.80;;;1.70;99.90;;;;;;5034755;28;20025;-73
2022/01/01 06:14:49;;;;;;;56.10;35.83;;;1.60;99.90;;;;;;5034035;28;20029;-73
2022/01/01 06:17:14;;;;;;;49.63;34.03;;;1.50;99.90;;;;;;5033894;28;20049;-73
2022/01/01 06:19:40;;;;;;;55.80;35.60;;;1.50;99.90;;;;;;5016586;28;20034;-73
2022/01/01 06:22:06;;;;;;;50.27;33.20;;;1.40;99.90;;;;;;5033855;28;20100;-72
2022/01/01 06:24:32;;;;;;;52.33;35.30;;;1.40;99.90;;;;;;5034008;28;20029;-73
2022/01/01 06:26:57;;;;;;;52.97;34.60;;;1.40;99.90;;;;;;5015989;28;20053;-73
2022/01/01 06:29:23;;;;;;;52.50;34.90;;;1.40;99.90;;;;;;5035098;28;20426;-73
2022/01/01 06:31:49;;;;;;;49.90;33.23;;;1.40;99.90;;;;;;5035256;28;20041;-73
2022/01/01 06:34:14;;;;;;;51.33;33.27;;;1.40;99.90;;;;;;5035179;28;20025;-73
2022/01/01 06:36:40;;;;;;;47.33;32.17;;;1.40;99.90;;;;;;5034822;28;20057;-73
2022/01/01 06:39:06;;;;;;;50.10;33.80;;;1.40;99.90;;;;;;5017277;28;20031;-73
2022/01/01 06:41:32;;;;;;;45.13;30.80;;;1.40;99.90;;;;;;5035048;28;20021;-73
2022/01/01 06:43:57;;;;;;;41.03;31.23;;;1.30;99.90;;;;;;5034881;28;20026;-73
2022/01/01 06:46:23;;;;;;;43.50;30.87;;;1.30;99.90;;;;;;5016815;28;20116;-73
2022/01/01 06:48:49;;;;;;;45.27;31.33;;;1.30;99.90;;;;;;5034843;28;20038;-73
2022/01/01 06:51:15;;;;;;;47.03;31.40;;;1.30;99.90;;;;;;5016807;28;20025;-73
2022/01/01 06:53:41;;;;;;;40.00;28.33;;;1.30;99.90;;;;;;5016818;28;20022;-73
2022/01/01 06:56:07;;;;;;;41.40;29.40;;;1.30;99.90;;;;;;5034244;28;20150;-73
2022/01/01 06:58:37;;;;;;;40.83;28.73;;;1.20;99.90;;;;;;5034163;28;20487;-73
2022/01/01 07:01:03;;;;;;;44.90;29.93;;;1.20;99.90;;;;;;5016643;28;20052;-73
2022/01/01 07:03:29;;;;;;;44.13;30.63;;;1.20;99.90;;;;;;5034423;28;20554;-73
2022/01/01 07:05:55;;;;;;;42.47;30.10;;;1.20;99.90;;;;;;5034181;28;20104;-73
2022/01/01 07:08:20;;;;;;;41.53;29.07;;;1.20;99.90;;;;;;5034613;28;20064;-73
2022/01/01 07:10:46;;;;;;;40.50;28.83;;;1.20;99.90;;;;;;5034387;28;20028;-72
2022/01/01 07:13:14;;;;;;;42.03;29.90;;;1.10;99.90;;;;;;5016635;28;20471;-73
2022/01/01 07:15:39;;;;;;;43.43;30.37;;;1.20;99.90;;;;;;5034139;28;20475;-72
2022/01/01 07:18:05;;;;;;;43.97;30.20;;;1.20;99.90;;;;;;5016320;28;20021;-73
2022/01/01 07:20:31;;;;;;;41.43;31.20;;;1.10;99.90;;;;;;5034117;28;20071;-73
2022/01/01 07:22:57;;;;;;;45.33;31.17;;;1.10;99.90;;;;;;5034073;28;20017;-73
2022/01/01 07:25:23;;;;;;;44.97;32.20;;;1.10;99.90;;;;;;5016122;28;20026;-72
2022/01/01 07:27:48;;;;;;;44.17;30.83;;;1.20;99.90;;;;;;5033809;28;20132;-73
2022/01/01 07:30:14;;;;;;;48.57;32.80;;;1.20;99.90;;;;;;5016116;28;20060;-73
2022/01/01 07:32:42;;;;;;;42.77;30.93;;;1.10;99.90;;;;;;5033286;28;20025;-73
2022/01/01 07:35:09;;;;;;;47.63;33.10;;;1.20;99.90;;;;;;5015857;28;20065;-73
2022/01/01 07:37:35;;;;;;;46.23;32.53;;;1.20;99.90;;;;;;5015975;28;20025;-73
2022/01/01 07:40:01;;;;;;;54.87;35.43;;;1.20;99.90;;;;;;5016008;28;20032;-73
2022/01/01 07:42:27;;;;;;;52.27;34.07;;;1.30;99.90;;;;;;5016061;28;20032;-73
2022/01/01 07:44:52;;;;;;;52.13;34.70;;;1.30;99.90;;;;;;5015872;28;20059;-73
2022/01/01 07:47:18;;;;;;;46.00;33.03;;;1.30;99.90;;;;;;5033447;28;20108;-73
2022/01/01 07:49:44;;;;;;;46.93;32.77;;;1.30;99.90;;;;;;5015937;28;20025;-73
2022/01/01 07:52:11;;;;;;;47.23;32.50;;;1.30;99.90;;;;;;5016081;28;20152;-72
2022/01/01 07:54:37;;;;;;;43.37;31.87;;;1.30;99.90;;;;;;5015839;28;20026;-73
2022/01/01 07:57:03;;;;;;;46.60;31.77;;;1.30;99.90;;;;;;5033339;28;20030;-73
2022/01/01 07:59:28;;;;;;;48.50;32.90;;;1.20;99.90;;;;;;5015651;28;20123;-73
2022/01/01 08:01:54;;;;;;;46.47;34.30;;;1.30;99.90;;;;;;5015755;28;20089;-73
2022/01/01 08:04:20;;;;;;;50.57;35.00;;;1.30;99.90;;;;;;5033367;28;20025;-73
2022/01/01 08:06:46;;;;;;;46.50;33.03;;;1.40;99.90;;;;;;5033037;28;20033;-73
2022/01/01 08:09:13;;;;;;;50.83;34.03;;;1.50;99.90;;;;;;5032502;28;20035;-73
2022/01/01 08:11:39;;;;;;;46.27;33.20;;;1.50;99.90;;;;;;5033190;28;20025;-73
2022/01/01 08:14:05;;;;;;;45.00;32.43;;;1.60;99.90;;;;;;5033152;28;20494;-72
2022/01/01 08:16:30;;;;;;;49.40;33.90;;;1.70;99.90;;;;;;5015190;28;20032;-73
2022/01/01 08:18:56;;;;;;;52.83;35.10;;;1.80;99.90;;;;;;5033181;28;20036;-73
2022/01/01 08:21:22;;;;;;;51.73;35.70;;;1.90;99.90;;;;;;5033109;28;20028;-73
2022/01/01 08:23:47;;;;;;;52.87;36.50;;;1.90;99.90;;;;;;5033034;28;20026;-74
2022/01/01 08:26:13;;;;;;;59.07;38.47;;;2.00;99.90;;;;;;5032840;28;20045;-73
2022/01/01 08:28:39;;;;;;;54.97;38.03;;;1.90;99.90;;;;;;5015323;28;20041;-73
2022/01/01 08:31:06;;;;;;;61.10;39.27;;;1.90;99.90;;;;;;5033098;28;20056;-73
2022/01/01 08:33:31;;;;;;;57.63;39.13;;;2.00;99.90;;;;;;5032790;28;20028;-73
2022/01/01 08:35:57;;;;;;;58.50;38.63;;;2.00;99.90;;;;;;5014901;28;20379;-73
2022/01/01 08:38:23;;;;;;;58.80;40.40;;;2.00;99.90;;;;;;5032676;28;20478;-74
2022/01/01 08:40:49;;;;;;;63.63;40.33;;;2.00;99.90;;;;;;5014722;28;20025;-73
2022/01/01 08:43:15;;;;;;;87.67;51.07;;;2.10;99.90;;;;;;5032619;28;20074;-73
2022/01/01 08:45:41;;;;;;;79.20;48.40;;;2.10;99.90;;;;;;5014631;28;20021;-73
2022/01/01 08:48:09;;;;;;;64.73;42.27;;;2.10;99.90;;;;;;5032701;28;20036;-73
2022/01/01 08:50:35;;;;;;;59.47;38.23;;;2.20;99.90;;;;;;5014633;28;20021;-73
2022/01/01 08:53:00;;;;;;;60.53;40.33;;;2.30;99.90;;;;;;5015031;28;20140;-73
2022/01/01 08:55:27;;;;;;;58.23;38.87;;;2.30;99.90;;;;;;5014675;28;20032;-73
2022/01/01 08:57:53;;;;;;;60.50;37.87;;;2.30;99.90;;;;;;5014671;28;20037;-73
2022/01/01 09:00:21;;;;;;;56.33;37.60;;;2.40;99.90;;;;;;5032411;28;20025;-73
2022/01/01 09:02:47;;;;;;;58.40;38.17;;;2.40;99.90;;;;;;5032271;28;20025;-73
2022/01/01 09:05:12;;;;;;;53.50;37.83;;;2.50;99.90;;;;;;5014629;28;20439;-73
2022/01/01 09:07:38;;;;;;;54.30;37.03;;;2.50;99.90;;;;;;5032409;28;20376;-73
2022/01/01 09:10:05;;;;;;;51.10;34.50;;;2.50;99.90;;;;;;5032226;28;20107;-73
2022/01/01 09:12:31;;;;;;;54.97;36.10;;;2.50;99.90;;;;;;5031878;28;20034;-73
2022/01/01 09:14:57;;;;;;;52.90;35.83;;;2.50;99.90;;;;;;5031953;28;20025;-73
2022/01/01 09:17:23;;;;;;;51.20;34.70;;;2.60;99.90;;;;;;5032075;28;20052;-73
2022/01/01 09:19:49;;;;;;;52.60;34.90;;;2.70;99.90;;;;;;5032832;28;20033;-73
2022/01/01 09:22:16;;;;;;;55.40;35.73;;;2.70;99.90;;;;;;5036239;28;20384;-73
2022/01/01 09:24:42;;;;;;;55.50;36.50;;;2.80;99.90;;;;;;5017991;28;20076;-73
2022/01/01 09:27:08;;;;;;;56.93;38.23;;;2.80;99.90;;;;;;5018335;28;20522;-73
2022/01/01 09:29:34;;;;;;;62.17;39.70;;;2.90;99.90;;;;;;5018381;28;20034;-72
2022/01/01 09:32:00;;;;;;;68.33;43.20;;;2.90;99.90;;;;;;5036121;28;20365;-73
2022/01/01 09:34:26;;;;;;;68.30;43.77;;;3.00;99.90;;;;;;5036029;28;20026;-73
2022/01/01 09:36:54;;;;;;;64.43;42.30;;;3.10;99.90;;;;;;5018074;28;20344;-73
2022/01/01 09:39:20;;;;;;;61.10;39.67;;;3.30;99.90;;;;;;5035867;28;20028;-73
2022/01/01 09:41:46;;;;;;;58.07;37.63;;;3.40;99.90;;;;;;5035954;28;20104;-73
2022/01/01 09:44:17;;;;;;;61.60;39.00;;;3.50;99.90;;;;;;5035777;28;20111;-73
2022/01/01 09:46:45;;;;;;;58.10;36.73;;;3.60;99.90;;;;;;5035938;28;20029;-73
2022/01/01 09:49:13;;;;;;;53.40;34.43;;;3.70;99.90;;;;;;5035801;28;20101;-73
2022/01/01 09:51:40;;;;;;;50.83;32.20;;;3.80;99.90;;;;;;5017985;28;20406;-73
2022/01/01 09:54:07;;;;;;;50.30;31.57;;;3.90;99.90;;;;;;5035630;28;20022;-73
2022/01/01 09:56:33;;;;;;;52.53;32.57;;;3.90;99.90;;;;;;5017417;28;20104;-73
2022/01/01 09:58:58;;;;;;;51.53;32.67;;;4.00;99.90;;;;;;5017863;28;20124;-73
2022/01/01 10:01:24;;;;;;;64.03;39.17;;;4.10;99.90;;;;;;5035540;28;20052;-73
2022/01/01 10:03:52;;;;;;;66.50;42.03;;;4.30;99.90;;;;;;5035494;28;20030;-73
2022/01/01 10:06:20;;;;;;;62.37;40.77;;;4.50;99.90;;;;;;5022569;28;20037;-73
2022/01/01 10:08:48;;;;;;;62.47;39.43;;;4.60;99.90;;;;;;5035653;28;20022;-73
2022/01/01 10:11:18;;;;;;;68.30;41.33;;;4.70;99.90;;;;;;5035464;28;20498;-73
2022/01/01 10:13:45;;;;;;;62.90;39.67;;;4.80;99.90;;;;;;5034298;28;20022;-73
2022/01/01 10:16:11;;;;;;;65.33;40.50;;;4.80;99.90;;;;;;5035303;28;20060;-73
2022/01/01 10:18:45;;;;;;;61.20;38.10;;;4.80;99.90;;;;;;5035124;28;20665;-73
2022/01/01 10:21:13;;;;;;;60.43;39.43;;;4.80;99.90;;;;;;5034045;28;20438;-73
2022/01/01 10:23:42;;;;;;;64.47;39.77;;;4.90;99.90;;;;;;5034106;28;20382;-73
2022/01/01 10:29:09;;;;;;;58.80;38.00;;;5.00;99.90;;;;;;5013776;28;20076;-73
2022/01/01 10:31:35;;;;;;;65.93;40.77;;;5.10;99.90;;;;;;5034136;28;20665;-73
2022/01/01 10:34:09;;;;;;;62.57;39.00;;;5.20;99.90;;;;;;5033825;28;20459;-73
2022/01/01 10:36:35;;;;;;;59.77;38.07;;;5.20;99.90;;;;;;5034319;28;20116;-73
2022/01/01 10:39:14;;;;;;;64.40;40.50;;;5.30;99.90;;;;;;5035147;28;20133;-73
2022/01/01 10:42:03;;;;;;;60.63;39.37;;;5.30;99.90;;;;;;5035105;28;20017;-74
2022/01/01 10:44:29;;;;;;;59.88;39.13;;;5.40;99.90;;;;;;5035036;28;20680;-74
2022/01/01 10:46:59;;;;;;;56.10;36.33;;;5.50;99.90;;;;;;5034640;28;20041;-73
2022/01/01 10:52:22;;;;;;;58.67;36.63;;;5.70;99.90;;;;;;5034579;28;20553;-73
2022/01/01 10:54:55;;;;;;;56.45;35.50;;;5.80;99.90;;;;;;5034485;28;20120;-73
2022/01/01 10:57:26;;;;;;;53.97;33.47;;;5.80;99.90;;;;;;5033058;28;20143;-73
2022/01/01 11:00:07;;;;;;;53.05;34.17;;;5.80;99.90;;;;;;5033687;28;20391;-80
2022/01/01 11:02:37;;;;;;;52.15;33.33;;;5.90;99.90;;;;;;5034850;28;20053;-79
2022/01/01 11:05:04;;;;;;;54.75;34.40;;;5.90;99.90;;;;;;5034854;28;20025;-80
2022/01/01 11:07:31;;;;;;;52.30;34.25;;;6.00;99.90;;;;;;5034367;28;20030;-80
2022/01/01 11:09:58;;;;;;;53.53;32.95;;;6.00;99.90;;;;;;5016451;28;20375;-80
2022/01/01 11:12:27;;;;;;;48.35;33.13;;;6.10;99.90;;;;;;5034175;28;20017;-79
2022/01/01 11:14:58;;;;;;;54.38;34.72;;;6.10;99.90;;;;;;5034007;28;20021;-80
2022/01/01 11:17:24;;;;;;;54.67;34.33;;;6.20;99.90;;;;;;5015971;28;20032;-80
2022/01/01 11:19:50;;;;;;;49.05;33.17;;;6.30;99.90;;;;;;5033538;28;20264;-80
2022/01/01 11:22:18;;;;;;;53.55;33.15;;;6.30;99.90;;;;;;5033386;28;20021;-80
2022/01/01 11:24:45;;;;;;;46.85;30.58;;;6.40;99.90;;;;;;5033461;28;20014;-80
2022/01/01 11:27:11;;;;;;;47.65;30.17;;;6.50;99.90;;;;;;5034016;28;20136;-80
2022/01/01 11:29:40;;;;;;;51.28;29.67;;;6.60;99.90;;;;;;5034136;28;20027;-80
2022/01/01 11:32:08;;;;;;;48.83;31.00;;;6.60;99.90;;;;;;5034084;28;20034;-80
2022/01/01 11:34:38;;;;;;;46.40;29.15;;;6.70;99.90;;;;;;5034194;28;20030;-80
2022/01/01 11:37:04;;;;;;;44.25;28.08;;;6.80;99.90;;;;;;5016231;28;20029;-80
2022/01/01 11:39:31;;;;;;;42.65;27.23;;;6.90;99.90;;;;;;5034148;28;20105;-80
2022/01/01 11:42:17;;;;;;;42.60;26.17;;;7.00;99.90;;;;;;5016426;28;20022;-80
2022/01/01 11:44:53;;;;;;;38.83;26.17;;;7.10;99.90;;;;;;5016351;28;20112;-80
2022/01/01 11:47:22;;;;;;;36.65;24.95;;;7.20;99.90;;;;;;5016372;28;20159;-80
2022/01/01 11:49:50;;;;;;;40.22;25.52;;;7.30;99.90;;;;;;5033940;28;20057;-80
2022/01/01 11:52:35;;;;;;;38.22;24.73;;;7.30;99.90;;;;;;5033726;28;20029;-80
2022/01/01 11:55:04;;;;;;;39.80;24.23;;;7.30;99.90;;;;;;5033477;28;20123;-80
2022/01/01 11:57:31;;;;;;;39.35;24.60;;;7.30;99.90;;;;;;5033587;28;20466;-80
2022/01/01 12:00:01;;;;;;;35.45;23.85;;;7.30;99.90;;;;;;5033447;28;20091;-80
2022/01/01 12:02:31;;;;;;;37.33;23.52;;;7.40;99.90;;;;;;5015459;28;20022;-80
2022/01/01 12:05:08;;;;;;;38.95;24.42;;;7.40;99.90;;;;;;5033429;28;20049;-80
2022/01/01 12:07:52;;;;;;;34.05;23.23;;;7.50;99.90;;;;;;5015950;28;20053;-80
2022/01/01 12:10:32;;;;;;;45.25;24.75;;;7.60;99.90;;;;;;5015994;28;20399;-80
2022/01/01 12:13:09;;;;;;;37.22;23.38;;;7.70;99.90;;;;;;5015805;28;20382;-79
2022/01/01 12:15:49;;;;;;;42.17;26.48;;;7.80;99.90;;;;;;5033433;28;20025;-80
2022/01/01 12:18:22;;;;;;;48.30;28.80;;;7.80;99.90;;;;;;5033541;28;20021;-80
2022/01/01 12:21:02;;;;;;;37.80;22.90;;;7.90;99.90;;;;;;5033494;28;20033;-80
2022/01/01 12:23:36;;;;;;;36.88;21.73;;;8.00;99.90;;;;;;5033525;28;20021;-80
2022/01/01 12:26:07;;;;;;;34.60;21.52;;;8.00;99.90;;;;;;5033209;28;20491;-80
2022/01/01 12:28:36;;;;;;;35.70;22.33;;;8.00;99.90;;;;;;5033241;28;20022;-80
2022/01/01 12:31:12;;;;;;;34.15;22.25;;;8.00;99.90;;;;;;5033236;28;20018;-80
2022/01/01 12:33:39;;;;;;;36.47;21.90;;;8.00;99.90;;;;;;5033409;28;20032;-80
2022/01/01 12:36:10;;;;;;;36.40;20.42;;;8.00;99.90;;;;;;5033099;28;20022;-80
2022/01/01 12:38:39;;;;;;;34.88;21.33;;;8.00;99.90;;;;;;5033139;28;20505;-81
2022/01/01 12:41:11;;;;;;;37.78;22.02;;;8.00;99.90;;;;;;5015500;28;20032;-80
2022/01/01 12:43:57;;;;;;;40.00;23.38;;;8.00;99.90;;;;;;5033082;28;20017;-80
2022/01/01 12:46:29;;;;;;;34.55;21.30;;;8.10;99.90;;;;;;5033043;28;20075;-80
2022/01/01 12:48:58;;;;;;;38.22;21.77;;;8.10;99.90;;;;;;5033119;28;20026;-81